Sterling, Pennsylvania
Current Conditions -  °F | °C
As of 3:53 PM on Saturday 25 Oct 2014 (Local Time) from KMPO Reporting Station
Clear Clear  
Wind Chill: 60°   Ceiling: Unl
Heat Index: 60°   Visibility: 10mi
Dew Point: 40°   Wind: 17mph
Humidity: 47%   Direction: 270°W
Pressure: 29.7"   Gusts: 23mph
Location:  41.34°N, 75.39°W
Report Text: KMPO 251953Z AUTO 27015G20KT 10SM CLR 16/04 A2970 RMK AO2 SLP059 T01560044
Loading
Personal Weather Stations






























Interactive Weather Map
Tropical Storm Tracking
New forecast layout! Learn more

10-Day Weather Forecast

Advertisements
Track Severe Weather on mobile